sensor_id;sensor_type;location;lat;lon;timestamp;P1;P2;P0
76238;PMS7003;65043;48.392;-4.472;2023-02-07T00:01:14;15.00;10.50;8.00
76238;PMS7003;65043;48.392;-4.472;2023-02-07T00:03:41;16.00;11.50;8.00
76238;PMS7003;65043;48.392;-4.472;2023-02-07T00:06:11;15.25;10.00;7.00
76238;PMS7003;65043;48.392;-4.472;2023-02-07T00:08:39;11.50;9.00;5.00
76238;PMS7003;65043;48.392;-4.472;2023-02-07T00:11:06;16.25;12.25;9.00
76238;PMS7003;65043;48.392;-4.472;2023-02-07T00:13:33;14.25;9.50;6.75
76238;PMS7003;65043;48.392;-4.472;2023-02-07T00:15:59;14.00;12.25;8.00
76238;PMS7003;65043;48.392;-4.472;2023-02-07T00:18:25;17.75;12.00;9.00
76238;PMS7003;65043;48.392;-4.472;2023-02-07T00:20:58;17.25;10.50;7.00
76238;PMS7003;65043;48.392;-4.472;2023-02-07T00:23:30;15.00;10.75;7.75
76238;PMS7003;65043;48.392;-4.472;2023-02-07T00:25:56;14.50;10.00;7.00
76238;PMS7003;65043;48.392;-4.472;2023-02-07T00:28:22;14.75;9.50;7.00
76238;PMS7003;65043;48.392;-4.472;2023-02-07T00:30:48;13.00;10.25;7.75
76238;PMS7003;65043;48.392;-4.472;2023-02-07T00:33:14;14.75;11.50;8.00
76238;PMS7003;65043;48.392;-4.472;2023-02-07T00:35:39;10.00;8.00;4.75
76238;PMS7003;65043;48.392;-4.472;2023-02-07T00:38:05;11.50;8.75;6.50
76238;PMS7003;65043;48.392;-4.472;2023-02-07T00:40:30;14.25;11.25;7.50
76238;PMS7003;65043;48.392;-4.472;2023-02-07T00:42:56;15.50;11.00;7.50
76238;PMS7003;65043;48.392;-4.472;2023-02-07T00:45:21;11.00;10.50;7.00
76238;PMS7003;65043;48.392;-4.472;2023-02-07T00:47:47;12.25;10.25;7.25
76238;PMS7003;65043;48.392;-4.472;2023-02-07T00:50:12;14.50;8.75;6.25
76238;PMS7003;65043;48.392;-4.472;2023-02-07T00:52:37;12.50;11.50;7.25
76238;PMS7003;65043;48.392;-4.472;2023-02-07T00:55:03;9.50;8.50;5.00
76238;PMS7003;65043;48.392;-4.472;2023-02-07T00:57:28;12.00;9.00;7.25
76238;PMS7003;65043;48.392;-4.472;2023-02-07T00:59:54;14.00;10.50;7.75
76238;PMS7003;65043;48.392;-4.472;2023-02-07T01:02:19;12.25;9.25;7.75
76238;PMS7003;65043;48.392;-4.472;2023-02-07T01:04:45;11.75;9.25;5.00
76238;PMS7003;65043;48.392;-4.472;2023-02-07T01:07:10;15.00;9.25;7.75
76238;PMS7003;65043;48.392;-4.472;2023-02-07T01:09:36;11.75;9.00;7.00
76238;PMS7003;65043;48.392;-4.472;2023-02-07T01:12:01;12.50;9.25;7.00
76238;PMS7003;65043;48.392;-4.472;2023-02-07T01:14:27;13.00;10.00;5.75
76238;PMS7003;65043;48.392;-4.472;2023-02-07T01:16:53;15.75;11.75;7.00
76238;PMS7003;65043;48.392;-4.472;2023-02-07T01:19:18;12.50;9.50;6.75
76238;PMS7003;65043;48.392;-4.472;2023-02-07T01:21:43;11.25;10.75;7.50
76238;PMS7003;65043;48.392;-4.472;2023-02-07T01:24:09;16.50;14.00;9.00
76238;PMS7003;65043;48.392;-4.472;2023-02-07T01:26:35;14.75;9.50;6.75
76238;PMS7003;65043;48.392;-4.472;2023-02-07T01:29:02;15.25;10.25;8.00
76238;PMS7003;65043;48.392;-4.472;2023-02-07T01:31:28;11.75;10.00;8.00
76238;PMS7003;65043;48.392;-4.472;2023-02-07T01:33:54;13.00;9.25;7.00
76238;PMS7003;65043;48.392;-4.472;2023-02-07T01:36:21;11.50;9.00;7.00
76238;PMS7003;65043;48.392;-4.472;2023-02-07T01:38:47;15.75;12.25;8.00
76238;PMS7003;65043;48.392;-4.472;2023-02-07T01:41:13;15.25;12.00;6.00
76238;PMS7003;65043;48.392;-4.472;2023-02-07T01:46:45;13.00;9.75;7.75
76238;PMS7003;65043;48.392;-4.472;2023-02-07T01:49:11;15.25;9.50;6.50
76238;PMS7003;65043;48.392;-4.472;2023-02-07T01:51:39;16.00;13.00;8.00
76238;PMS7003;65043;48.392;-4.472;2023-02-07T01:54:10;17.00;11.75;8.00
76238;PMS7003;65043;48.392;-4.472;2023-02-07T01:56:39;19.75;13.25;8.00
76238;PMS7003;65043;48.392;-4.472;2023-02-07T01:59:07;13.00;9.50;7.00
76238;PMS7003;65043;48.392;-4.472;2023-02-07T02:01:32;11.00;9.50;6.50
76238;PMS7003;65043;48.392;-4.472;2023-02-07T02:03:58;16.00;13.75;8.00
76238;PMS7003;65043;48.392;-4.472;2023-02-07T02:06:26;12.25;8.50;6.00
76238;PMS7003;65043;48.392;-4.472;2023-02-07T02:08:54;15.00;11.00;7.00
76238;PMS7003;65043;48.392;-4.472;2023-02-07T02:11:34;12.50;10.00;7.00
76238;PMS7003;65043;48.392;-4.472;2023-02-07T02:22:43;12.25;10.50;7.25
76238;PMS7003;65043;48.392;-4.472;2023-02-07T02:44:39;13.75;11.75;7.50
76238;PMS7003;65043;48.392;-4.472;2023-02-07T02:47:09;14.75;11.50;7.75
76238;PMS7003;65043;48.392;-4.472;2023-02-07T02:49:36;14.50;11.25;7.00
76238;PMS7003;65043;48.392;-4.472;2023-02-07T02:52:02;12.75;9.50;7.50
76238;PMS7003;65043;48.392;-4.472;2023-02-07T02:54:30;15.00;11.50;7.00
76238;PMS7003;65043;48.392;-4.472;2023-02-07T03:07:56;12.75;11.75;6.75
76238;PMS7003;65043;48.392;-4.472;2023-02-07T03:10:46;18.75;11.75;8.25
76238;PMS7003;65043;48.392;-4.472;2023-02-07T03:16:10;14.75;10.00;5.25
76238;PMS7003;65043;48.392;-4.472;2023-02-07T03:21:21;14.75;13.50;10.00
76238;PMS7003;65043;48.392;-4.472;2023-02-07T03:23:49;19.00;13.00;9.25
76238;PMS7003;65043;48.392;-4.472;2023-02-07T03:26:17;26.50;14.50;8.50
76238;PMS7003;65043;48.392;-4.472;2023-02-07T03:28:44;10.50;8.25;4.00
76238;PMS7003;65043;48.392;-4.472;2023-02-07T03:31:11;12.75;9.50;8.00
76238;PMS7003;65043;48.392;-4.472;2023-02-07T03:33:41;16.00;11.25;8.00
76238;PMS7003;65043;48.392;-4.472;2023-02-07T03:36:13;10.00;9.50;6.75
76238;PMS7003;65043;48.392;-4.472;2023-02-07T03:38:41;12.00;11.75;8.75
76238;PMS7003;65043;48.392;-4.472;2023-02-07T03:41:10;12.75;10.75;8.00
76238;PMS7003;65043;48.392;-4.472;2023-02-07T03:43:42;12.50;11.50;7.75
76238;PMS7003;65043;48.392;-4.472;2023-02-07T03:46:08;12.75;11.50;7.50
76238;PMS7003;65043;48.392;-4.472;2023-02-07T03:48:34;15.50;13.50;8.25
76238;PMS7003;65043;48.392;-4.472;2023-02-07T03:50:59;12.75;11.50;8.00
76238;PMS7003;65043;48.392;-4.472;2023-02-07T03:53:25;15.00;13.50;9.00
76238;PMS7003;65043;48.392;-4.472;2023-02-07T03:55:51;14.00;10.50;6.50
76238;PMS7003;65043;48.392;-4.472;2023-02-07T03:58:17;13.75;10.50;8.00
76238;PMS7003;65043;48.392;-4.472;2023-02-07T04:00:42;13.50;13.00;8.00
76238;PMS7003;65043;48.392;-4.472;2023-02-07T04:03:08;12.50;9.50;7.50
76238;PMS7003;65043;48.392;-4.472;2023-02-07T04:05:33;18.50;14.25;8.25
76238;PMS7003;65043;48.392;-4.472;2023-02-07T04:07:59;13.75;10.25;8.00
76238;PMS7003;65043;48.392;-4.472;2023-02-07T04:10:24;14.00;13.00;8.00
76238;PMS7003;65043;48.392;-4.472;2023-02-07T04:12:50;15.75;15.75;9.00
76238;PMS7003;65043;48.392;-4.472;2023-02-07T04:15:15;18.75;15.75;9.75
76238;PMS7003;65043;48.392;-4.472;2023-02-07T04:17:40;22.25;14.25;7.25
76238;PMS7003;65043;48.392;-4.472;2023-02-07T04:20:06;17.00;10.00;7.00
76238;PMS7003;65043;48.392;-4.472;2023-02-07T04:22:32;18.75;14.00;9.00
76238;PMS7003;65043;48.392;-4.472;2023-02-07T04:24:58;18.25;14.50;9.00
76238;PMS7003;65043;48.392;-4.472;2023-02-07T04:27:23;18.50;15.75;11.00
76238;PMS7003;65043;48.392;-4.472;2023-02-07T04:29:49;11.00;8.00;4.00
76238;PMS7003;65043;48.392;-4.472;2023-02-07T04:32:14;16.25;13.25;9.00
76238;PMS7003;65043;48.392;-4.472;2023-02-07T04:34:40;16.75;12.00;9.75
76238;PMS7003;65043;48.392;-4.472;2023-02-07T04:37:05;21.25;11.25;8.00
76238;PMS7003;65043;48.392;-4.472;2023-02-07T04:39:31;17.00;14.00;9.00
76238;PMS7003;65043;48.392;-4.472;2023-02-07T04:41:57;15.25;10.25;8.75
76238;PMS7003;65043;48.392;-4.472;2023-02-07T04:44:22;15.50;13.25;8.25
76238;PMS7003;65043;48.392;-4.472;2023-02-07T04:46:48;17.00;14.00;8.75
76238;PMS7003;65043;48.392;-4.472;2023-02-07T04:49:13;14.50;14.50;8.25
76238;PMS7003;65043;48.392;-4.472;2023-02-07T04:51:39;15.50;14.50;8.00
76238;PMS7003;65043;48.392;-4.472;2023-02-07T04:54:04;15.50;13.00;8.25
76238;PMS7003;65043;48.392;-4.472;2023-02-07T04:56:29;18.75;14.50;9.00
76238;PMS7003;65043;48.392;-4.472;2023-02-07T04:58:56;14.25;12.75;9.00
76238;PMS7003;65043;48.392;-4.472;2023-02-07T05:01:21;15.00;14.00;7.75
76238;PMS7003;65043;48.392;-4.472;2023-02-07T05:03:47;18.25;16.75;10.00
76238;PMS7003;65043;48.392;-4.472;2023-02-07T05:06:12;17.25;13.75;9.00
76238;PMS7003;65043;48.392;-4.472;2023-02-07T05:08:38;14.75;14.50;10.00
76238;PMS7003;65043;48.392;-4.472;2023-02-07T05:11:03;16.75;13.25;8.25
76238;PMS7003;65043;48.392;-4.472;2023-02-07T05:13:29;13.75;13.25;8.00
76238;PMS7003;65043;48.392;-4.472;2023-02-07T05:15:55;14.50;10.25;7.00
76238;PMS7003;65043;48.392;-4.472;2023-02-07T05:18:20;13.75;13.00;9.00
76238;PMS7003;65043;48.392;-4.472;2023-02-07T05:20:46;15.50;11.25;8.25
76238;PMS7003;65043;48.392;-4.472;2023-02-07T05:23:12;14.75;10.75;8.00
76238;PMS7003;65043;48.392;-4.472;2023-02-07T05:25:39;15.50;13.75;10.00
76238;PMS7003;65043;48.392;-4.472;2023-02-07T05:28:05;17.50;13.75;7.75
76238;PMS7003;65043;48.392;-4.472;2023-02-07T05:30:31;18.75;13.75;8.50
76238;PMS7003;65043;48.392;-4.472;2023-02-07T05:32:56;14.75;13.75;9.00
76238;PMS7003;65043;48.392;-4.472;2023-02-07T05:35:27;14.50;13.00;8.00
76238;PMS7003;65043;48.392;-4.472;2023-02-07T05:37:54;16.25;13.00;8.00
76238;PMS7003;65043;48.392;-4.472;2023-02-07T05:40:19;12.00;11.00;7.00
76238;PMS7003;65043;48.392;-4.472;2023-02-07T05:42:45;16.50;13.75;6.75
76238;PMS7003;65043;48.392;-4.472;2023-02-07T05:45:10;16.00;14.25;9.25
76238;PMS7003;65043;48.392;-4.472;2023-02-07T05:47:36;12.00;9.75;8.00
76238;PMS7003;65043;48.392;-4.472;2023-02-07T05:50:01;12.00;10.50;8.00
76238;PMS7003;65043;48.392;-4.472;2023-02-07T05:52:27;20.75;13.00;7.50
76238;PMS7003;65043;48.392;-4.472;2023-02-07T05:54:52;16.50;12.50;8.00
76238;PMS7003;65043;48.392;-4.472;2023-02-07T05:57:18;14.00;13.50;9.00
76238;PMS7003;65043;48.392;-4.472;2023-02-07T05:59:43;12.50;9.75;8.00
76238;PMS7003;65043;48.392;-4.472;2023-02-07T06:02:09;17.00;14.50;9.00
76238;PMS7003;65043;48.392;-4.472;2023-02-07T06:04:34;17.75;13.50;9.00
76238;PMS7003;65043;48.392;-4.472;2023-02-07T06:07:00;16.00;13.25;9.75
76238;PMS7003;65043;48.392;-4.472;2023-02-07T06:09:25;14.75;13.25;9.00
76238;PMS7003;65043;48.392;-4.472;2023-02-07T06:11:51;20.00;14.75;9.75
76238;PMS7003;65043;48.392;-4.472;2023-02-07T06:14:16;15.25;15.25;9.50
76238;PMS7003;65043;48.392;-4.472;2023-02-07T06:16:42;13.50;10.00;7.75
76238;PMS7003;65043;48.392;-4.472;2023-02-07T06:19:08;19.00;13.25;8.00
76238;PMS7003;65043;48.392;-4.472;2023-02-07T06:21:35;13.25;13.00;9.00
76238;PMS7003;65043;48.392;-4.472;2023-02-07T06:24:00;17.75;13.50;8.00
76238;PMS7003;65043;48.392;-4.472;2023-02-07T06:26:25;14.25;13.75;7.00
76238;PMS7003;65043;48.392;-4.472;2023-02-07T06:28:51;14.00;12.50;8.25
76238;PMS7003;65043;48.392;-4.472;2023-02-07T06:31:16;12.25;10.75;8.00
76238;PMS7003;65043;48.392;-4.472;2023-02-07T06:33:42;15.50;12.00;7.50
76238;PMS7003;65043;48.392;-4.472;2023-02-07T06:36:07;14.50;11.75;8.00
76238;PMS7003;65043;48.392;-4.472;2023-02-07T06:38:33;14.00;10.75;7.00
76238;PMS7003;65043;48.392;-4.472;2023-02-07T06:40:58;19.50;13.25;9.00
76238;PMS7003;65043;48.392;-4.472;2023-02-07T06:43:23;15.50;11.25;8.00
76238;PMS7003;65043;48.392;-4.472;2023-02-07T06:45:49;14.50;10.75;6.50
76238;PMS7003;65043;48.392;-4.472;2023-02-07T06:48:14;18.75;14.75;8.00
76238;PMS7003;65043;48.392;-4.472;2023-02-07T06:50:39;19.50;17.25;9.50
76238;PMS7003;65043;48.392;-4.472;2023-02-07T06:53:05;17.50;13.50;8.00
76238;PMS7003;65043;48.392;-4.472;2023-02-07T06:55:31;17.00;14.00;8.00
76238;PMS7003;65043;48.392;-4.472;2023-02-07T06:57:59;16.25;11.75;7.25
76238;PMS7003;65043;48.392;-4.472;2023-02-07T07:00:25;18.25;13.25;7.50
76238;PMS7003;65043;48.392;-4.472;2023-02-07T07:02:50;21.25;15.00;8.00
76238;PMS7003;65043;48.392;-4.472;2023-02-07T07:05:16;13.25;8.75;7.75
76238;PMS7003;65043;48.392;-4.472;2023-02-07T07:07:42;15.75;12.00;7.50
76238;PMS7003;65043;48.392;-4.472;2023-02-07T07:10:08;18.75;14.75;9.00
76238;PMS7003;65043;48.392;-4.472;2023-02-07T07:12:34;15.50;12.25;7.50
76238;PMS7003;65043;48.392;-4.472;2023-02-07T07:15:00;15.75;10.00;4.00
76238;PMS7003;65043;48.392;-4.472;2023-02-07T07:17:25;11.50;7.25;5.00
76238;PMS7003;65043;48.392;-4.472;2023-02-07T07:19:50;13.50;9.25;6.50
76238;PMS7003;65043;48.392;-4.472;2023-02-07T07:22:16;15.25;12.75;8.00
76238;PMS7003;65043;48.392;-4.472;2023-02-07T07:24:42;9.00;8.00;4.50
76238;PMS7003;65043;48.392;-4.472;2023-02-07T07:27:07;14.00;14.00;8.00
76238;PMS7003;65043;48.392;-4.472;2023-02-07T07:29:32;16.75;13.25;7.25
76238;PMS7003;65043;48.392;-4.472;2023-02-07T07:31:58;12.50;12.50;7.50
76238;PMS7003;65043;48.392;-4.472;2023-02-07T07:34:23;17.75;11.25;7.00
76238;PMS7003;65043;48.392;-4.472;2023-02-07T07:36:49;19.00;13.75;8.00
76238;PMS7003;65043;48.392;-4.472;2023-02-07T07:39:14;13.00;12.25;7.00
76238;PMS7003;65043;48.392;-4.472;2023-02-07T07:41:41;14.00;9.50;7.00
76238;PMS7003;65043;48.392;-4.472;2023-02-07T07:44:07;15.50;11.50;7.00
76238;PMS7003;65043;48.392;-4.472;2023-02-07T07:46:32;13.25;10.25;7.25
76238;PMS7003;65043;48.392;-4.472;2023-02-07T07:48:58;18.25;11.25;7.25
76238;PMS7003;65043;48.392;-4.472;2023-02-07T07:51:23;13.25;10.75;7.25
76238;PMS7003;65043;48.392;-4.472;2023-02-07T07:53:49;17.25;12.50;7.75
76238;PMS7003;65043;48.392;-4.472;2023-02-07T07:56:14;13.50;10.00;6.00
76238;PMS7003;65043;48.392;-4.472;2023-02-07T07:58:40;13.25;9.00;6.00
76238;PMS7003;65043;48.392;-4.472;2023-02-07T08:01:05;10.50;9.00;7.00
76238;PMS7003;65043;48.392;-4.472;2023-02-07T08:03:30;12.25;9.75;8.00
76238;PMS7003;65043;48.392;-4.472;2023-02-07T08:05:56;11.25;10.00;7.00
76238;PMS7003;65043;48.392;-4.472;2023-02-07T08:08:21;18.00;8.75;5.00
76238;PMS7003;65043;48.392;-4.472;2023-02-07T08:10:47;14.25;13.25;7.00
76238;PMS7003;65043;48.392;-4.472;2023-02-07T08:13:13;16.00;12.75;8.00
76238;PMS7003;65043;48.392;-4.472;2023-02-07T08:15:38;19.25;13.25;8.00
76238;PMS7003;65043;48.392;-4.472;2023-02-07T08:18:04;16.50;12.75;9.00
76238;PMS7003;65043;48.392;-4.472;2023-02-07T08:20:30;17.25;12.75;8.50
76238;PMS7003;65043;48.392;-4.472;2023-02-07T08:22:55;18.25;16.50;9.25
76238;PMS7003;65043;48.392;-4.472;2023-02-07T08:25:22;13.75;12.00;8.00
76238;PMS7003;65043;48.392;-4.472;2023-02-07T08:27:48;16.00;14.00;9.50
76238;PMS7003;65043;48.392;-4.472;2023-02-07T08:30:13;19.50;15.50;9.00
76238;PMS7003;65043;48.392;-4.472;2023-02-07T08:32:40;17.25;14.75;9.25
76238;PMS7003;65043;48.392;-4.472;2023-02-07T08:35:06;18.25;15.25;9.50
76238;PMS7003;65043;48.392;-4.472;2023-02-07T08:37:32;16.00;14.50;10.00
76238;PMS7003;65043;48.392;-4.472;2023-02-07T08:39:58;19.50;17.00;9.75
76238;PMS7003;65043;48.392;-4.472;2023-02-07T08:42:23;24.50;18.25;10.00
76238;PMS7003;65043;48.392;-4.472;2023-02-07T08:44:49;21.50;15.25;9.00
76238;PMS7003;65043;48.392;-4.472;2023-02-07T08:47:15;17.00;14.50;8.75
76238;PMS7003;65043;48.392;-4.472;2023-02-07T08:49:42;22.50;15.25;9.00
76238;PMS7003;65043;48.392;-4.472;2023-02-07T08:52:08;15.50;15.25;9.25
76238;PMS7003;65043;48.392;-4.472;2023-02-07T08:54:34;18.75;16.25;11.25
76238;PMS7003;65043;48.392;-4.472;2023-02-07T08:57:00;20.50;16.25;11.25
76238;PMS7003;65043;48.392;-4.472;2023-02-07T08:59:26;23.50;17.00;10.00
76238;PMS7003;65043;48.392;-4.472;2023-02-07T09:01:51;21.00;16.00;9.25
76238;PMS7003;65043;48.392;-4.472;2023-02-07T09:04:17;18.75;15.25;10.50
76238;PMS7003;65043;48.392;-4.472;2023-02-07T09:06:42;17.50;11.75;9.25
76238;PMS7003;65043;48.392;-4.472;2023-02-07T09:09:08;21.75;13.75;10.00
76238;PMS7003;65043;48.392;-4.472;2023-02-07T09:11:34;20.75;17.00;10.50
76238;PMS7003;65043;48.392;-4.472;2023-02-07T09:14:00;24.50;19.00;9.00
76238;PMS7003;65043;48.392;-4.472;2023-02-07T09:16:26;17.75;16.00;10.50
76238;PMS7003;65043;48.392;-4.472;2023-02-07T09:18:51;19.75;16.75;11.00
76238;PMS7003;65043;48.392;-4.472;2023-02-07T09:21:17;16.75;16.75;10.00
76238;PMS7003;65043;48.392;-4.472;2023-02-07T09:23:43;17.50;15.25;9.25
76238;PMS7003;65043;48.392;-4.472;2023-02-07T09:26:09;20.25;18.25;10.00
76238;PMS7003;65043;48.392;-4.472;2023-02-07T09:28:40;19.75;16.25;10.50
76238;PMS7003;65043;48.392;-4.472;2023-02-07T09:31:07;30.50;19.75;11.00
76238;PMS7003;65043;48.392;-4.472;2023-02-07T09:33:33;22.00;18.25;11.50
76238;PMS7003;65043;48.392;-4.472;2023-02-07T09:35:58;26.75;18.00;10.75
76238;PMS7003;65043;48.392;-4.472;2023-02-07T09:38:24;27.25;19.75;11.75
76238;PMS7003;65043;48.392;-4.472;2023-02-07T09:40:52;24.00;19.75;11.00
76238;PMS7003;65043;48.392;-4.472;2023-02-07T09:46:28;24.75;21.50;12.75
76238;PMS7003;65043;48.392;-4.472;2023-02-07T09:49:06;23.75;17.75;11.00
76238;PMS7003;65043;48.392;-4.472;2023-02-07T09:51:39;20.25;17.25;11.00
76238;PMS7003;65043;48.392;-4.472;2023-02-07T09:54:12;19.75;18.50;12.25
76238;PMS7003;65043;48.392;-4.472;2023-02-07T09:56:46;31.25;20.50;12.25
76238;PMS7003;65043;48.392;-4.472;2023-02-07T10:02:20;22.75;18.00;12.25
76238;PMS7003;65043;48.392;-4.472;2023-02-07T10:04:57;33.00;22.25;13.50
76238;PMS7003;65043;48.392;-4.472;2023-02-07T10:07:29;21.75;20.75;13.50
76238;PMS7003;65043;48.392;-4.472;2023-02-07T10:09:55;23.75;18.25;12.50
76238;PMS7003;65043;48.392;-4.472;2023-02-07T10:21:13;25.25;23.25;14.50
76238;PMS7003;65043;48.392;-4.472;2023-02-07T10:32:01;36.00;28.25;15.00
76238;PMS7003;65043;48.392;-4.472;2023-02-07T10:34:33;30.50;21.25;13.25
76238;PMS7003;65043;48.392;-4.472;2023-02-07T10:37:00;31.50;23.75;12.25
76238;PMS7003;65043;48.392;-4.472;2023-02-07T10:39:40;24.25;22.25;14.50
76238;PMS7003;65043;48.392;-4.472;2023-02-07T10:42:13;26.50;21.75;11.75
76238;PMS7003;65043;48.392;-4.472;2023-02-07T10:44:40;26.50;22.50;13.50
76238;PMS7003;65043;48.392;-4.472;2023-02-07T10:47:06;24.25;19.75;11.50
76238;PMS7003;65043;48.392;-4.472;2023-02-07T10:49:38;22.00;18.75;12.75
76238;PMS7003;65043;48.392;-4.472;2023-02-07T10:52:12;26.00;20.25;12.00
76238;PMS7003;65043;48.392;-4.472;2023-02-07T10:54:48;21.50;19.25;11.75
76238;PMS7003;65043;48.392;-4.472;2023-02-07T10:57:17;17.00;16.00;10.25
76238;PMS7003;65043;48.392;-4.472;2023-02-07T10:59:43;19.00;18.50;12.50
76238;PMS7003;65043;48.392;-4.472;2023-02-07T11:07:24;18.50;17.00;11.00
76238;PMS7003;65043;48.392;-4.472;2023-02-07T11:09:50;16.00;15.25;10.00
76238;PMS7003;65043;48.392;-4.472;2023-02-07T11:12:33;23.00;19.75;12.00
76238;PMS7003;65043;48.392;-4.472;2023-02-07T11:15:16;20.50;17.00;10.75
76238;PMS7003;65043;48.392;-4.472;2023-02-07T11:17:47;11.75;9.25;7.25
76238;PMS7003;65043;48.392;-4.472;2023-02-07T11:20:26;20.75;17.75;10.75
76238;PMS7003;65043;48.392;-4.472;2023-02-07T11:22:55;17.50;15.00;10.00
76238;PMS7003;65043;48.392;-4.472;2023-02-07T11:25:29;16.75;13.25;9.00
76238;PMS7003;65043;48.392;-4.472;2023-02-07T11:28:02;13.75;11.75;6.00
76238;PMS7003;65043;48.392;-4.472;2023-02-07T11:30:28;15.75;14.50;9.25
76238;PMS7003;65043;48.392;-4.472;2023-02-07T11:33:03;19.75;13.75;9.00
76238;PMS7003;65043;48.392;-4.472;2023-02-07T11:35:34;17.75;12.75;9.00
76238;PMS7003;65043;48.392;-4.472;2023-02-07T11:38:04;16.00;16.00;10.50
76238;PMS7003;65043;48.392;-4.472;2023-02-07T11:40:37;13.50;13.00;9.75
76238;PMS7003;65043;48.392;-4.472;2023-02-07T11:43:12;18.75;12.50;8.75
76238;PMS7003;65043;48.392;-4.472;2023-02-07T11:45:41;18.25;15.00;9.00
76238;PMS7003;65043;48.392;-4.472;2023-02-07T11:48:16;18.50;13.50;8.25
76238;PMS7003;65043;48.392;-4.472;2023-02-07T11:50:46;14.25;12.25;9.00
76238;PMS7003;65043;48.392;-4.472;2023-02-07T11:54:02;10.75;10.00;7.25
76238;PMS7003;65043;48.392;-4.472;2023-02-07T11:56:21;10.25;9.50;6.50
76238;PMS7003;65043;48.392;-4.472;2023-02-07T11:58:50;14.00;12.50;7.25
76238;PMS7003;65043;48.392;-4.472;2023-02-07T12:01:18;12.75;11.00;7.00
76238;PMS7003;65043;48.392;-4.472;2023-02-07T12:03:49;11.50;9.75;5.75
76238;PMS7003;65043;48.392;-4.472;2023-02-07T12:06:22;10.25;8.25;5.00
76238;PMS7003;65043;48.392;-4.472;2023-02-07T12:08:55;7.50;7.25;4.75
76238;PMS7003;65043;48.392;-4.472;2023-02-07T12:11:23;7.25;5.75;4.00
76238;PMS7003;65043;48.392;-4.472;2023-02-07T12:13:59;8.50;6.00;4.00
76238;PMS7003;65043;48.392;-4.472;2023-02-07T12:16:33;7.25;6.00;5.00
76238;PMS7003;65043;48.392;-4.472;2023-02-07T12:22:15;14.50;8.00;5.00
76238;PMS7003;65043;48.392;-4.472;2023-02-07T12:24:55;6.25;6.25;4.75
76238;PMS7003;65043;48.392;-4.472;2023-02-07T12:27:38;7.75;7.75;5.00
76238;PMS7003;65043;48.392;-4.472;2023-02-07T12:30:15;13.25;9.50;6.00
76238;PMS7003;65043;48.392;-4.472;2023-02-07T12:32:54;7.75;7.75;5.50
76238;PMS7003;65043;48.392;-4.472;2023-02-07T12:38:20;12.25;8.75;5.00
76238;PMS7003;65043;48.392;-4.472;2023-02-07T12:40:57;7.25;7.00;5.00
76238;PMS7003;65043;48.392;-4.472;2023-02-07T12:43:36;11.75;8.00;4.75
76238;PMS7003;65043;48.392;-4.472;2023-02-07T12:51:36;12.25;9.50;6.00
76238;PMS7003;65043;48.392;-4.472;2023-02-07T13:03:16;12.50;11.50;6.25
76238;PMS7003;65043;48.392;-4.472;2023-02-07T13:08:43;13.25;11.50;6.00
76238;PMS7003;65043;48.392;-4.472;2023-02-07T13:11:59;14.00;7.25;5.25
76238;PMS7003;65043;48.392;-4.472;2023-02-07T13:14:53;9.50;8.25;5.75
76238;PMS7003;65043;48.392;-4.472;2023-02-07T13:17:49;10.25;7.00;5.00
76238;PMS7003;65043;48.392;-4.472;2023-02-07T13:20:34;8.75;6.75;5.00
76238;PMS7003;65043;48.392;-4.472;2023-02-07T13:23:12;9.75;5.50;4.50
76238;PMS7003;65043;48.392;-4.472;2023-02-07T13:25:43;7.25;6.25;4.00
76238;PMS7003;65043;48.392;-4.472;2023-02-07T13:28:17;8.00;5.50;4.00
76238;PMS7003;65043;48.392;-4.472;2023-02-07T13:30:50;5.75;5.00;3.75
76238;PMS7003;65043;48.392;-4.472;2023-02-07T13:35:52;6.75;6.00;5.00
76238;PMS7003;65043;48.392;-4.472;2023-02-07T13:38:38;7.50;6.25;4.25
76238;PMS7003;65043;48.392;-4.472;2023-02-07T13:51:53;6.25;5.00;4.00
76238;PMS7003;65043;48.392;-4.472;2023-02-07T13:57:03;8.00;5.25;4.00
76238;PMS7003;65043;48.392;-4.472;2023-02-07T14:02:33;6.50;6.00;4.00
76238;PMS7003;65043;48.392;-4.472;2023-02-07T14:05:19;10.25;6.00;4.00
76238;PMS7003;65043;48.392;-4.472;2023-02-07T14:07:52;7.00;7.00;5.00
76238;PMS7003;65043;48.392;-4.472;2023-02-07T14:13:18;8.00;5.75;4.00
76238;PMS7003;65043;48.392;-4.472;2023-02-07T14:31:47;6.75;6.00;3.25
76238;PMS7003;65043;48.392;-4.472;2023-02-07T14:34:18;5.50;5.00;3.25
76238;PMS7003;65043;48.392;-4.472;2023-02-07T14:36:45;5.25;5.00;3.00
76238;PMS7003;65043;48.392;-4.472;2023-02-07T14:41:42;4.00;4.00;2.75
76238;PMS7003;65043;48.392;-4.472;2023-02-07T14:44:25;6.00;4.00;2.50
76238;PMS7003;65043;48.392;-4.472;2023-02-07T14:46:59;6.25;5.50;3.00
76238;PMS7003;65043;48.392;-4.472;2023-02-07T14:49:31;6.25;4.50;3.00
76238;PMS7003;65043;48.392;-4.472;2023-02-07T14:57:54;7.50;5.00;3.00
76238;PMS7003;65043;48.392;-4.472;2023-02-07T15:00:33;4.00;3.00;2.00
76238;PMS7003;65043;48.392;-4.472;2023-02-07T15:03:08;5.50;3.50;2.00
76238;PMS7003;65043;48.392;-4.472;2023-02-07T15:13:33;3.00;3.00;1.50
76238;PMS7003;65043;48.392;-4.472;2023-02-07T15:18:37;2.50;2.00;1.00
76238;PMS7003;65043;48.392;-4.472;2023-02-07T15:21:05;5.25;3.25;2.50
76238;PMS7003;65043;48.392;-4.472;2023-02-07T15:23:34;3.00;3.00;2.00
76238;PMS7003;65043;48.392;-4.472;2023-02-07T15:26:04;4.50;4.50;3.00
76238;PMS7003;65043;48.392;-4.472;2023-02-07T15:28:31;4.00;3.50;3.00
76238;PMS7003;65043;48.392;-4.472;2023-02-07T15:31:04;7.50;7.50;4.00
76238;PMS7003;65043;48.392;-4.472;2023-02-07T15:33:36;7.25;5.25;3.00
76238;PMS7003;65043;48.392;-4.472;2023-02-07T15:36:05;9.00;5.75;3.50
76238;PMS7003;65043;48.392;-4.472;2023-02-07T15:38:49;6.25;6.25;5.00
76238;PMS7003;65043;48.392;-4.472;2023-02-07T15:41:15;6.50;5.00;4.00
76238;PMS7003;65043;48.392;-4.472;2023-02-07T15:43:52;7.00;5.00;3.00
76238;PMS7003;65043;48.392;-4.472;2023-02-07T15:46:17;7.25;5.00;4.00
76238;PMS7003;65043;48.392;-4.472;2023-02-07T15:51:13;6.50;6.50;4.75
76238;PMS7003;65043;48.392;-4.472;2023-02-07T15:53:40;60.00;46.75;28.25
76238;PMS7003;65043;48.392;-4.472;2023-02-07T15:56:06;57.50;45.75;29.25
76238;PMS7003;65043;48.392;-4.472;2023-02-07T15:58:33;59.50;45.00;28.00
76238;PMS7003;65043;48.392;-4.472;2023-02-07T16:01:01;82.75;68.75;44.00
76238;PMS7003;65043;48.392;-4.472;2023-02-07T16:03:41;28.00;24.50;17.00
76238;PMS7003;65043;48.392;-4.472;2023-02-07T16:06:15;12.00;11.00;8.00
76238;PMS7003;65043;48.392;-4.472;2023-02-07T16:08:44;11.75;8.00;6.00
76238;PMS7003;65043;48.392;-4.472;2023-02-07T16:16:57;5.75;4.75;4.00
76238;PMS7003;65043;48.392;-4.472;2023-02-07T16:19:26;5.75;5.25;3.50
76238;PMS7003;65043;48.392;-4.472;2023-02-07T16:24:22;7.00;5.75;3.75
76238;PMS7003;65043;48.392;-4.472;2023-02-07T16:26:51;8.50;5.00;4.50
76238;PMS7003;65043;48.392;-4.472;2023-02-07T16:29:18;5.50;5.50;3.00
76238;PMS7003;65043;48.392;-4.472;2023-02-07T16:31:45;8.00;6.25;5.00
76238;PMS7003;65043;48.392;-4.472;2023-02-07T16:34:13;5.50;5.50;4.00
76238;PMS7003;65043;48.392;-4.472;2023-02-07T16:36:40;7.50;5.00;4.00
76238;PMS7003;65043;48.392;-4.472;2023-02-07T16:39:06;6.75;5.75;4.00
76238;PMS7003;65043;48.392;-4.472;2023-02-07T16:41:33;5.25;5.25;3.75
76238;PMS7003;65043;48.392;-4.472;2023-02-07T16:44:01;4.25;4.25;3.00